sensor_id;sensor_type;location;lat;lon;timestamp;temperature;humidity
69731;SHT31;56996;48.138;11.538;2023-09-12T00:00:46;21.71;63.49
69731;SHT31;56996;48.138;11.538;2023-09-12T00:03:14;21.70;63.48
69731;SHT31;56996;48.138;11.538;2023-09-12T00:05:41;21.67;63.50
69731;SHT31;56996;48.138;11.538;2023-09-12T00:08:08;21.65;63.47
69731;SHT31;56996;48.138;11.538;2023-09-12T00:10:35;21.61;63.43
69731;SHT31;56996;48.138;11.538;2023-09-12T00:13:01;21.59;63.49
69731;SHT31;56996;48.138;11.538;2023-09-12T00:15:28;21.54;63.53
69731;SHT31;56996;48.138;11.538;2023-09-12T00:17:56;21.52;63.60
69731;SHT31;56996;48.138;11.538;2023-09-12T00:20:23;21.50;63.64
69731;SHT31;56996;48.138;11.538;2023-09-12T00:22:50;21.49;63.58
69731;SHT31;56996;48.138;11.538;2023-09-12T00:25:17;21.44;63.58
69731;SHT31;56996;48.138;11.538;2023-09-12T00:27:43;21.41;63.67
69731;SHT31;56996;48.138;11.538;2023-09-12T00:30:10;21.37;63.59
69731;SHT31;56996;48.138;11.538;2023-09-12T00:32:37;21.34;63.56
69731;SHT31;56996;48.138;11.538;2023-09-12T00:35:04;21.31;63.59
69731;SHT31;56996;48.138;11.538;2023-09-12T00:37:32;21.28;63.63
69731;SHT31;56996;48.138;11.538;2023-09-12T00:39:59;21.27;63.69
69731;SHT31;56996;48.138;11.538;2023-09-12T00:42:25;21.23;63.74
69731;SHT31;56996;48.138;11.538;2023-09-12T00:44:53;21.20;63.83
69731;SHT31;56996;48.138;11.538;2023-09-12T00:47:21;21.19;63.89
69731;SHT31;56996;48.138;11.538;2023-09-12T00:49:50;21.17;63.92
69731;SHT31;56996;48.138;11.538;2023-09-12T00:52:23;21.15;63.97
69731;SHT31;56996;48.138;11.538;2023-09-12T00:54:52;21.13;64.09
69731;SHT31;56996;48.138;11.538;2023-09-12T00:57:20;21.11;64.14
69731;SHT31;56996;48.138;11.538;2023-09-12T00:59:49;21.10;64.20
69731;SHT31;56996;48.138;11.538;2023-09-12T01:02:16;21.09;64.21
69731;SHT31;56996;48.138;11.538;2023-09-12T01:04:44;21.08;64.25
69731;SHT31;56996;48.138;11.538;2023-09-12T01:07:11;21.07;64.29
69731;SHT31;56996;48.138;11.538;2023-09-12T01:09:38;21.06;64.29
69731;SHT31;56996;48.138;11.538;2023-09-12T01:12:08;21.06;64.37
69731;SHT31;56996;48.138;11.538;2023-09-12T01:14:35;21.03;64.39
69731;SHT31;56996;48.138;11.538;2023-09-12T01:17:02;21.02;64.51
69731;SHT31;56996;48.138;11.538;2023-09-12T01:19:29;21.02;64.46
69731;SHT31;56996;48.138;11.538;2023-09-12T01:22:17;21.02;64.48
69731;SHT31;56996;48.138;11.538;2023-09-12T01:25:07;21.01;64.49
69731;SHT31;56996;48.138;11.538;2023-09-12T01:27:56;20.97;64.48
69731;SHT31;56996;48.138;11.538;2023-09-12T01:30:30;20.96;64.51
69731;SHT31;56996;48.138;11.538;2023-09-12T01:32:59;20.94;64.63
69731;SHT31;56996;48.138;11.538;2023-09-12T01:35:26;20.91;64.82
69731;SHT31;56996;48.138;11.538;2023-09-12T01:37:54;20.89;64.94
69731;SHT31;56996;48.138;11.538;2023-09-12T01:40:30;20.87;65.09
69731;SHT31;56996;48.138;11.538;2023-09-12T01:43:11;20.83;65.24
69731;SHT31;56996;48.138;11.538;2023-09-12T01:45:42;20.80;65.45
69731;SHT31;56996;48.138;11.538;2023-09-12T01:48:10;20.78;65.57
69731;SHT31;56996;48.138;11.538;2023-09-12T01:50:38;20.74;65.67
69731;SHT31;56996;48.138;11.538;2023-09-12T01:53:05;20.70;65.74
69731;SHT31;56996;48.138;11.538;2023-09-12T01:55:32;20.67;65.89
69731;SHT31;56996;48.138;11.538;2023-09-12T01:57:59;20.64;65.98
69731;SHT31;56996;48.138;11.538;2023-09-12T02:00:26;20.62;66.07
69731;SHT31;56996;48.138;11.538;2023-09-12T02:02:53;20.60;66.16
69731;SHT31;56996;48.138;11.538;2023-09-12T02:05:20;20.59;66.24
69731;SHT31;56996;48.138;11.538;2023-09-12T02:07:49;20.56;66.31
69731;SHT31;56996;48.138;11.538;2023-09-12T02:10:16;20.54;66.39
69731;SHT31;56996;48.138;11.538;2023-09-12T02:12:43;20.51;66.56
69731;SHT31;56996;48.138;11.538;2023-09-12T02:15:10;20.51;66.65
69731;SHT31;56996;48.138;11.538;2023-09-12T02:17:36;20.48;66.59
69731;SHT31;56996;48.138;11.538;2023-09-12T02:20:08;20.45;66.41
69731;SHT31;56996;48.138;11.538;2023-09-12T02:22:36;20.44;66.43
69731;SHT31;56996;48.138;11.538;2023-09-12T02:25:05;20.45;66.55
69731;SHT31;56996;48.138;11.538;2023-09-12T02:27:32;20.44;66.52
69731;SHT31;56996;48.138;11.538;2023-09-12T02:29:58;20.42;66.53
69731;SHT31;56996;48.138;11.538;2023-09-12T02:32:25;20.39;66.49
69731;SHT31;56996;48.138;11.538;2023-09-12T02:34:52;20.34;66.30
69731;SHT31;56996;48.138;11.538;2023-09-12T02:37:19;20.32;65.97
69731;SHT31;56996;48.138;11.538;2023-09-12T02:39:46;20.30;65.81
69731;SHT31;56996;48.138;11.538;2023-09-12T02:42:13;20.28;65.83
69731;SHT31;56996;48.138;11.538;2023-09-12T02:44:39;20.28;65.88
69731;SHT31;56996;48.138;11.538;2023-09-12T02:47:06;20.28;65.77
69731;SHT31;56996;48.138;11.538;2023-09-12T02:49:33;20.27;65.79
69731;SHT31;56996;48.138;11.538;2023-09-12T02:52:00;20.27;65.75
69731;SHT31;56996;48.138;11.538;2023-09-12T02:54:26;20.25;65.84
69731;SHT31;56996;48.138;11.538;2023-09-12T02:56:53;20.25;65.89
69731;SHT31;56996;48.138;11.538;2023-09-12T02:59:20;20.24;65.89
69731;SHT31;56996;48.138;11.538;2023-09-12T03:01:47;20.22;65.97
69731;SHT31;56996;48.138;11.538;2023-09-12T03:04:14;20.20;66.10
69731;SHT31;56996;48.138;11.538;2023-09-12T03:06:40;20.19;66.07
69731;SHT31;56996;48.138;11.538;2023-09-12T03:09:08;20.17;66.03
69731;SHT31;56996;48.138;11.538;2023-09-12T03:11:34;20.15;66.11
69731;SHT31;56996;48.138;11.538;2023-09-12T03:14:01;20.11;66.22
69731;SHT31;56996;48.138;11.538;2023-09-12T03:16:28;20.10;66.26
69731;SHT31;56996;48.138;11.538;2023-09-12T03:18:55;20.08;66.38
69731;SHT31;56996;48.138;11.538;2023-09-12T03:21:22;20.04;66.49
69731;SHT31;56996;48.138;11.538;2023-09-12T03:23:49;20.04;66.51
69731;SHT31;56996;48.138;11.538;2023-09-12T03:26:15;20.02;66.60
69731;SHT31;56996;48.138;11.538;2023-09-12T03:28:42;20.01;66.62
69731;SHT31;56996;48.138;11.538;2023-09-12T03:31:10;20.01;66.65
69731;SHT31;56996;48.138;11.538;2023-09-12T03:33:40;19.99;66.69
69731;SHT31;56996;48.138;11.538;2023-09-12T03:36:08;19.97;66.78
69731;SHT31;56996;48.138;11.538;2023-09-12T03:38:36;19.93;66.87
69731;SHT31;56996;48.138;11.538;2023-09-12T03:41:03;19.91;66.92
69731;SHT31;56996;48.138;11.538;2023-09-12T03:43:30;19.88;67.06
69731;SHT31;56996;48.138;11.538;2023-09-12T03:45:57;19.85;67.11
69731;SHT31;56996;48.138;11.538;2023-09-12T03:48:24;19.83;67.14
69731;SHT31;56996;48.138;11.538;2023-09-12T03:50:51;19.81;67.23
69731;SHT31;56996;48.138;11.538;2023-09-12T03:53:18;19.79;67.31
69731;SHT31;56996;48.138;11.538;2023-09-12T03:55:45;19.77;67.40
69731;SHT31;56996;48.138;11.538;2023-09-12T03:58:11;19.75;67.45
69731;SHT31;56996;48.138;11.538;2023-09-12T04:00:38;19.74;67.49
69731;SHT31;56996;48.138;11.538;2023-09-12T04:03:05;19.72;67.50
69731;SHT31;56996;48.138;11.538;2023-09-12T04:05:32;19.70;67.52
69731;SHT31;56996;48.138;11.538;2023-09-12T04:07:58;19.68;67.60
69731;SHT31;56996;48.138;11.538;2023-09-12T04:10:25;19.66;67.72
69731;SHT31;56996;48.138;11.538;2023-09-12T04:12:52;19.65;67.77
69731;SHT31;56996;48.138;11.538;2023-09-12T04:15:19;19.63;67.88
69731;SHT31;56996;48.138;11.538;2023-09-12T04:17:46;19.62;67.98
69731;SHT31;56996;48.138;11.538;2023-09-12T04:20:12;19.61;67.99
69731;SHT31;56996;48.138;11.538;2023-09-12T04:22:42;19.60;67.92
69731;SHT31;56996;48.138;11.538;2023-09-12T04:25:09;19.58;67.97
69731;SHT31;56996;48.138;11.538;2023-09-12T04:27:36;19.58;67.99
69731;SHT31;56996;48.138;11.538;2023-09-12T04:30:03;19.57;68.00
69731;SHT31;56996;48.138;11.538;2023-09-12T04:32:31;19.57;67.91
69731;SHT31;56996;48.138;11.538;2023-09-12T04:34:59;19.57;67.89
69731;SHT31;56996;48.138;11.538;2023-09-12T04:37:26;19.54;67.97
69731;SHT31;56996;48.138;11.538;2023-09-12T04:39:53;19.53;68.00
69731;SHT31;56996;48.138;11.538;2023-09-12T04:42:20;19.50;68.14
69731;SHT31;56996;48.138;11.538;2023-09-12T04:44:47;19.50;68.22
69731;SHT31;56996;48.138;11.538;2023-09-12T04:47:15;19.49;68.30
69731;SHT31;56996;48.138;11.538;2023-09-12T04:49:42;19.49;68.32
69731;SHT31;56996;48.138;11.538;2023-09-12T04:52:10;19.48;68.30
69731;SHT31;56996;48.138;11.538;2023-09-12T04:54:37;19.48;68.32
69731;SHT31;56996;48.138;11.538;2023-09-12T04:57:04;19.49;68.40
69731;SHT31;56996;48.138;11.538;2023-09-12T04:59:31;19.48;68.38
69731;SHT31;56996;48.138;11.538;2023-09-12T05:01:58;19.49;68.40
69731;SHT31;56996;48.138;11.538;2023-09-12T05:04:25;19.48;68.38
69731;SHT31;56996;48.138;11.538;2023-09-12T05:06:51;19.46;68.40
69731;SHT31;56996;48.138;11.538;2023-09-12T05:09:18;19.45;68.47
69731;SHT31;56996;48.138;11.538;2023-09-12T05:11:45;19.46;68.53
69731;SHT31;56996;48.138;11.538;2023-09-12T05:14:11;19.46;68.53
69731;SHT31;56996;48.138;11.538;2023-09-12T05:16:38;19.45;68.57
69731;SHT31;56996;48.138;11.538;2023-09-12T05:19:05;19.47;68.86
69731;SHT31;56996;48.138;11.538;2023-09-12T05:21:32;19.47;68.75
69731;SHT31;56996;48.138;11.538;2023-09-12T05:23:59;19.47;68.54
69731;SHT31;56996;48.138;11.538;2023-09-12T05:26:26;19.48;68.51
69731;SHT31;56996;48.138;11.538;2023-09-12T05:28:53;19.50;68.50
69731;SHT31;56996;48.138;11.538;2023-09-12T05:31:19;19.52;68.49
69731;SHT31;56996;48.138;11.538;2023-09-12T05:33:46;19.56;68.48
69731;SHT31;56996;48.138;11.538;2023-09-12T05:36:13;19.58;68.55
69731;SHT31;56996;48.138;11.538;2023-09-12T05:38:40;19.59;68.50
69731;SHT31;56996;48.138;11.538;2023-09-12T05:41:08;19.60;68.41
69731;SHT31;56996;48.138;11.538;2023-09-12T05:43:34;19.64;68.38
69731;SHT31;56996;48.138;11.538;2023-09-12T05:46:02;19.68;68.39
69731;SHT31;56996;48.138;11.538;2023-09-12T05:48:29;19.71;68.28
69731;SHT31;56996;48.138;11.538;2023-09-12T05:50:55;19.77;68.26
69731;SHT31;56996;48.138;11.538;2023-09-12T05:53:23;19.82;68.23
69731;SHT31;56996;48.138;11.538;2023-09-12T05:55:50;19.86;68.09
69731;SHT31;56996;48.138;11.538;2023-09-12T05:58:16;19.93;67.92
69731;SHT31;56996;48.138;11.538;2023-09-12T06:00:43;19.97;67.69
69731;SHT31;56996;48.138;11.538;2023-09-12T06:03:12;20.02;67.53
69731;SHT31;56996;48.138;11.538;2023-09-12T06:05:41;20.08;67.29
69731;SHT31;56996;48.138;11.538;2023-09-12T06:08:07;20.12;67.17
69731;SHT31;56996;48.138;11.538;2023-09-12T06:10:34;20.20;67.07
69731;SHT31;56996;48.138;11.538;2023-09-12T06:13:01;20.28;66.91
69731;SHT31;56996;48.138;11.538;2023-09-12T06:15:28;20.36;66.77
69731;SHT31;56996;48.138;11.538;2023-09-12T06:17:54;20.65;66.44
69731;SHT31;56996;48.138;11.538;2023-09-12T06:20:21;22.01;64.14
69731;SHT31;56996;48.138;11.538;2023-09-12T06:22:49;23.56;60.57
69731;SHT31;56996;48.138;11.538;2023-09-12T06:25:17;23.77;59.22
69731;SHT31;56996;48.138;11.538;2023-09-12T06:27:44;23.50;59.63
69731;SHT31;56996;48.138;11.538;2023-09-12T06:30:11;23.27;60.04
69731;SHT31;56996;48.138;11.538;2023-09-12T06:32:38;23.10;60.24
69731;SHT31;56996;48.138;11.538;2023-09-12T06:35:05;23.00;60.30
69731;SHT31;56996;48.138;11.538;2023-09-12T06:37:33;22.90;60.40
69731;SHT31;56996;48.138;11.538;2023-09-12T06:39:59;22.86;60.36
69731;SHT31;56996;48.138;11.538;2023-09-12T06:42:26;22.85;60.38
69731;SHT31;56996;48.138;11.538;2023-09-12T06:44:53;22.85;60.27
69731;SHT31;56996;48.138;11.538;2023-09-12T06:47:19;22.80;60.38
69731;SHT31;56996;48.138;11.538;2023-09-12T06:49:46;22.78;60.42
69731;SHT31;56996;48.138;11.538;2023-09-12T06:52:20;22.75;60.41
69731;SHT31;56996;48.138;11.538;2023-09-12T06:54:48;22.76;60.40
69731;SHT31;56996;48.138;11.538;2023-09-12T06:57:14;22.76;60.42
69731;SHT31;56996;48.138;11.538;2023-09-12T06:59:41;22.77;60.42
69731;SHT31;56996;48.138;11.538;2023-09-12T07:02:08;22.82;60.33
69731;SHT31;56996;48.138;11.538;2023-09-12T07:04:36;22.85;60.31
69731;SHT31;56996;48.138;11.538;2023-09-12T07:07:03;22.87;60.31
69731;SHT31;56996;48.138;11.538;2023-09-12T07:09:30;22.90;60.32
69731;SHT31;56996;48.138;11.538;2023-09-12T07:11:57;22.93;60.35
69731;SHT31;56996;48.138;11.538;2023-09-12T07:14:24;22.96;60.31
69731;SHT31;56996;48.138;11.538;2023-09-12T07:16:51;23.02;60.19
69731;SHT31;56996;48.138;11.538;2023-09-12T07:19:18;23.10;60.09
69731;SHT31;56996;48.138;11.538;2023-09-12T07:21:45;23.14;59.97
69731;SHT31;56996;48.138;11.538;2023-09-12T07:24:13;23.17;60.14
69731;SHT31;56996;48.138;11.538;2023-09-12T07:26:39;23.21;59.99
69731;SHT31;56996;48.138;11.538;2023-09-12T07:29:06;23.25;59.82
69731;SHT31;56996;48.138;11.538;2023-09-12T07:31:33;23.30;59.79
69731;SHT31;56996;48.138;11.538;2023-09-12T07:34:00;23.39;59.66
69731;SHT31;56996;48.138;11.538;2023-09-12T07:36:27;23.47;59.34
69731;SHT31;56996;48.138;11.538;2023-09-12T07:38:53;23.56;59.16
69731;SHT31;56996;48.138;11.538;2023-09-12T07:41:20;23.63;58.87
69731;SHT31;56996;48.138;11.538;2023-09-12T07:43:47;23.73;58.78
69731;SHT31;56996;48.138;11.538;2023-09-12T07:46:13;23.81;58.57
69731;SHT31;56996;48.138;11.538;2023-09-12T07:48:40;23.91;58.38
69731;SHT31;56996;48.138;11.538;2023-09-12T07:51:11;24.00;58.22
69731;SHT31;56996;48.138;11.538;2023-09-12T07:53:40;24.10;57.97
69731;SHT31;56996;48.138;11.538;2023-09-12T07:56:08;24.20;57.65
69731;SHT31;56996;48.138;11.538;2023-09-12T07:58:37;24.29;57.31
69731;SHT31;56996;48.138;11.538;2023-09-12T08:01:04;24.45;56.95
69731;SHT31;56996;48.138;11.538;2023-09-12T08:03:36;24.62;56.42
69731;SHT31;56996;48.138;11.538;2023-09-12T08:06:06;24.84;56.03
69731;SHT31;56996;48.138;11.538;2023-09-12T08:08:33;25.24;55.07
69731;SHT31;56996;48.138;11.538;2023-09-12T08:11:00;25.53;54.37
69731;SHT31;56996;48.138;11.538;2023-09-12T08:13:28;25.80;53.98
69731;SHT31;56996;48.138;11.538;2023-09-12T08:15:58;25.97;53.90
69731;SHT31;56996;48.138;11.538;2023-09-12T08:18:27;26.55;52.81
69731;SHT31;56996;48.138;11.538;2023-09-12T08:20:57;27.58;50.79
69731;SHT31;56996;48.138;11.538;2023-09-12T08:23:24;28.62;49.08
69731;SHT31;56996;48.138;11.538;2023-09-12T08:25:51;29.65;47.22
69731;SHT31;56996;48.138;11.538;2023-09-12T08:28:18;30.59;45.48
69731;SHT31;56996;48.138;11.538;2023-09-12T08:30:45;31.56;43.76
69731;SHT31;56996;48.138;11.538;2023-09-12T08:33:13;32.31;42.59
69731;SHT31;56996;48.138;11.538;2023-09-12T08:35:40;33.15;41.09
69731;SHT31;56996;48.138;11.538;2023-09-12T08:38:07;33.95;40.10
69731;SHT31;56996;48.138;11.538;2023-09-12T08:40:35;34.81;38.59
69731;SHT31;56996;48.138;11.538;2023-09-12T08:43:03;35.53;37.43
69731;SHT31;56996;48.138;11.538;2023-09-12T08:45:30;36.14;36.06
69731;SHT31;56996;48.138;11.538;2023-09-12T08:47:58;36.75;35.60
69731;SHT31;56996;48.138;11.538;2023-09-12T08:50:27;37.46;34.37
69731;SHT31;56996;48.138;11.538;2023-09-12T08:52:59;37.74;33.95
69731;SHT31;56996;48.138;11.538;2023-09-12T08:55:34;38.32;33.14
69731;SHT31;56996;48.138;11.538;2023-09-12T08:58:03;38.68;32.30
69731;SHT31;56996;48.138;11.538;2023-09-12T09:00:32;38.86;30.81
69731;SHT31;56996;48.138;11.538;2023-09-12T09:03:01;38.36;31.18
69731;SHT31;56996;48.138;11.538;2023-09-12T09:05:29;38.56;31.51
69731;SHT31;56996;48.138;11.538;2023-09-12T09:07:57;38.92;30.92
69731;SHT31;56996;48.138;11.538;2023-09-12T09:10:25;39.35;30.24
69731;SHT31;56996;48.138;11.538;2023-09-12T09:13:15;40.30;29.19
69731;SHT31;56996;48.138;11.538;2023-09-12T09:15:41;41.06;28.37
69731;SHT31;56996;48.138;11.538;2023-09-12T09:18:09;41.43;27.20
69731;SHT31;56996;48.138;11.538;2023-09-12T09:20:39;41.25;27.39
69731;SHT31;56996;48.138;11.538;2023-09-12T09:23:08;41.45;26.97
69731;SHT31;56996;48.138;11.538;2023-09-12T09:25:41;41.65;26.79
69731;SHT31;56996;48.138;11.538;2023-09-12T09:28:19;42.15;26.48
69731;SHT31;56996;48.138;11.538;2023-09-12T09:30:48;42.62;25.94
69731;SHT31;56996;48.138;11.538;2023-09-12T09:33:22;43.06;25.21
69731;SHT31;56996;48.138;11.538;2023-09-12T09:35:49;43.33;24.55
69731;SHT31;56996;48.138;11.538;2023-09-12T09:38:18;42.92;24.81
69731;SHT31;56996;48.138;11.538;2023-09-12T09:40:46;42.94;24.16
69731;SHT31;56996;48.138;11.538;2023-09-12T09:43:19;43.03;24.24
69731;SHT31;56996;48.138;11.538;2023-09-12T09:45:47;43.23;24.23
69731;SHT31;56996;48.138;11.538;2023-09-12T09:48:21;43.26;23.01
69731;SHT31;56996;48.138;11.538;2023-09-12T09:50:52;41.99;23.88
69731;SHT31;56996;48.138;11.538;2023-09-12T09:53:26;42.00;24.31
69731;SHT31;56996;48.138;11.538;2023-09-12T09:56:06;42.07;24.15
69731;SHT31;56996;48.138;11.538;2023-09-12T09:58:46;41.93;24.35
69731;SHT31;56996;48.138;11.538;2023-09-12T10:01:25;41.82;24.19
69731;SHT31;56996;48.138;11.538;2023-09-12T10:03:58;41.56;24.28
69731;SHT31;56996;48.138;11.538;2023-09-12T10:06:28;41.22;24.52
69731;SHT31;56996;48.138;11.538;2023-09-12T10:08:56;40.85;24.44
69731;SHT31;56996;48.138;11.538;2023-09-12T10:11:27;40.32;24.59
69731;SHT31;56996;48.138;11.538;2023-09-12T10:13:56;39.79;24.79
69731;SHT31;56996;48.138;11.538;2023-09-12T10:16:30;39.26;25.46
69731;SHT31;56996;48.138;11.538;2023-09-12T10:21:46;38.01;26.58
69731;SHT31;56996;48.138;11.538;2023-09-12T10:24:27;37.07;27.60
69731;SHT31;56996;48.138;11.538;2023-09-12T10:26:55;36.96;27.69
69731;SHT31;56996;48.138;11.538;2023-09-12T10:29:23;36.80;26.74
69731;SHT31;56996;48.138;11.538;2023-09-12T10:31:50;36.47;27.09
69731;SHT31;56996;48.138;11.538;2023-09-12T10:34:16;36.22;27.56
69731;SHT31;56996;48.138;11.538;2023-09-12T10:36:46;35.98;28.05
69731;SHT31;56996;48.138;11.538;2023-09-12T10:39:15;35.79;28.34
69731;SHT31;56996;48.138;11.538;2023-09-12T10:41:42;35.57;28.60
69731;SHT31;56996;48.138;11.538;2023-09-12T10:44:09;35.38;28.78
69731;SHT31;56996;48.138;11.538;2023-09-12T10:46:41;35.04;28.87
69731;SHT31;56996;48.138;11.538;2023-09-12T10:49:11;34.71;29.25
69731;SHT31;56996;48.138;11.538;2023-09-12T10:51:41;34.58;29.39
69731;SHT31;56996;48.138;11.538;2023-09-12T10:54:14;34.42;29.59
69731;SHT31;56996;48.138;11.538;2023-09-12T10:59:38;34.06;30.42
69731;SHT31;56996;48.138;11.538;2023-09-12T11:02:39;33.95;30.65
69731;SHT31;56996;48.138;11.538;2023-09-12T11:05:37;34.00;30.34
69731;SHT31;56996;48.138;11.538;2023-09-12T11:07:57;33.94;30.26
69731;SHT31;56996;48.138;11.538;2023-09-12T11:10:26;33.86;30.56
69731;SHT31;56996;48.138;11.538;2023-09-12T11:12:55;33.66;31.00
69731;SHT31;56996;48.138;11.538;2023-09-12T11:15:27;33.54;31.21
69731;SHT31;56996;48.138;11.538;2023-09-12T11:18:04;33.32;31.54
69731;SHT31;56996;48.138;11.538;2023-09-12T11:23:38;33.36;31.52
69731;SHT31;56996;48.138;11.538;2023-09-12T11:26:06;33.27;31.27
69731;SHT31;56996;48.138;11.538;2023-09-12T11:28:36;33.14;31.22
69731;SHT31;56996;48.138;11.538;2023-09-12T11:31:03;33.06;31.18
69731;SHT31;56996;48.138;11.538;2023-09-12T11:33:31;33.05;30.88
69731;SHT31;56996;48.138;11.538;2023-09-12T11:35:59;33.06;30.62
69731;SHT31;56996;48.138;11.538;2023-09-12T11:38:28;33.03;30.56
69731;SHT31;56996;48.138;11.538;2023-09-12T11:40:57;33.03;30.69
69731;SHT31;56996;48.138;11.538;2023-09-12T11:43:26;32.86;31.00
69731;SHT31;56996;48.138;11.538;2023-09-12T11:45:55;32.63;31.29
69731;SHT31;56996;48.138;11.538;2023-09-12T11:48:24;32.70;31.39
69731;SHT31;56996;48.138;11.538;2023-09-12T11:50:54;32.78;31.49
69731;SHT31;56996;48.138;11.538;2023-09-12T11:53:24;32.73;31.83
69731;SHT31;56996;48.138;11.538;2023-09-12T11:55:56;32.77;31.81
69731;SHT31;56996;48.138;11.538;2023-09-12T11:58:25;32.83;31.81
69731;SHT31;56996;48.138;11.538;2023-09-12T12:00:54;32.94;31.65
69731;SHT31;56996;48.138;11.538;2023-09-12T12:03:24;32.94;31.31
69731;SHT31;56996;48.138;11.538;2023-09-12T12:05:54;33.00;31.47
69731;SHT31;56996;48.138;11.538;2023-09-12T12:08:22;32.97;31.03
69731;SHT31;56996;48.138;11.538;2023-09-12T12:10:53;32.80;31.12
69731;SHT31;56996;48.138;11.538;2023-09-12T12:13:20;32.84;31.19
69731;SHT31;56996;48.138;11.538;2023-09-12T12:15:49;32.97;31.16
69731;SHT31;56996;48.138;11.538;2023-09-12T12:18:16;33.01;31.07
69731;SHT31;56996;48.138;11.538;2023-09-12T12:20:43;32.99;31.27
69731;SHT31;56996;48.138;11.538;2023-09-12T12:23:10;33.02;31.35
69731;SHT31;56996;48.138;11.538;2023-09-12T12:25:37;33.10;31.39
69731;SHT31;56996;48.138;11.538;2023-09-12T12:28:04;33.19;31.33
69731;SHT31;56996;48.138;11.538;2023-09-12T12:30:31;33.21;31.23
69731;SHT31;56996;48.138;11.538;2023-09-12T12:33:01;33.13;31.23
69731;SHT31;56996;48.138;11.538;2023-09-12T12:36:03;33.01;31.08
69731;SHT31;56996;48.138;11.538;2023-09-12T12:38:35;32.85;31.17
69731;SHT31;56996;48.138;11.538;2023-09-12T12:41:28;32.93;31.33
69731;SHT31;56996;48.138;11.538;2023-09-12T12:44:08;33.05;31.23
69731;SHT31;56996;48.138;11.538;2023-09-12T12:46:47;33.13;30.85
69731;SHT31;56996;48.138;11.538;2023-09-12T12:49:21;33.02;30.85
69731;SHT31;56996;48.138;11.538;2023-09-12T12:51:49;32.97;31.11
69731;SHT31;56996;48.138;11.538;2023-09-12T12:54:16;32.98;30.90
69731;SHT31;56996;48.138;11.538;2023-09-12T12:56:43;32.98;30.99
69731;SHT31;56996;48.138;11.538;2023-09-12T12:59:12;32.83;30.63
69731;SHT31;56996;48.138;11.538;2023-09-12T13:01:38;32.73;30.97
69731;SHT31;56996;48.138;11.538;2023-09-12T13:04:06;32.76;30.94
69731;SHT31;56996;48.138;11.538;2023-09-12T13:06:35;32.74;30.62
69731;SHT31;56996;48.138;11.538;2023-09-12T13:09:03;32.74;30.50
69731;SHT31;56996;48.138;11.538;2023-09-12T13:11:32;32.85;30.52
69731;SHT31;56996;48.138;11.538;2023-09-12T13:14:02;32.82;30.40
69731;SHT31;56996;48.138;11.538;2023-09-12T13:16:36;32.77;30.40
69731;SHT31;56996;48.138;11.538;2023-09-12T13:19:06;32.70;30.23
69731;SHT31;56996;48.138;11.538;2023-09-12T13:21:33;32.64;30.17
69731;SHT31;56996;48.138;11.538;2023-09-12T13:24:01;32.50;30.05
69731;SHT31;56996;48.138;11.538;2023-09-12T13:26:28;32.50;30.07
69731;SHT31;56996;48.138;11.538;2023-09-12T13:28:56;32.65;29.62
69731;SHT31;56996;48.138;11.538;2023-09-12T13:31:23;32.75;29.44
69731;SHT31;56996;48.138;11.538;2023-09-12T13:33:50;32.79;29.15
69731;SHT31;56996;48.138;11.538;2023-09-12T13:36:17;32.75;28.30
69731;SHT31;56996;48.138;11.538;2023-09-12T13:38:44;32.65;28.31
69731;SHT31;56996;48.138;11.538;2023-09-12T13:41:14;32.64;28.28
69731;SHT31;56996;48.138;11.538;2023-09-12T13:43:40;32.65;28.24
69731;SHT31;56996;48.138;11.538;2023-09-12T13:46:08;32.67;28.11
69731;SHT31;56996;48.138;11.538;2023-09-12T13:48:37;32.58;28.70
69731;SHT31;56996;48.138;11.538;2023-09-12T13:51:04;32.50;28.90
69731;SHT31;56996;48.138;11.538;2023-09-12T13:53:31;32.38;29.57
69731;SHT31;56996;48.138;11.538;2023-09-12T13:55:57;32.32;30.27
69731;SHT31;56996;48.138;11.538;2023-09-12T13:58:28;32.29;30.20
69731;SHT31;56996;48.138;11.538;2023-09-12T14:01:06;32.32;30.07
69731;SHT31;56996;48.138;11.538;2023-09-12T14:03:35;32.31;30.19
69731;SHT31;56996;48.138;11.538;2023-09-12T14:06:02;32.30;30.08
69731;SHT31;56996;48.138;11.538;2023-09-12T14:08:30;32.21;29.99
69731;SHT31;56996;48.138;11.538;2023-09-12T14:10:57;32.20;30.02
69731;SHT31;56996;48.138;11.538;2023-09-12T14:13:23;32.20;30.16
69731;SHT31;56996;48.138;11.538;2023-09-12T14:15:52;32.12;29.97
69731;SHT31;56996;48.138;11.538;2023-09-12T14:18:19;31.94;30.07
69731;SHT31;56996;48.138;11.538;2023-09-12T14:20:48;31.86;30.14
69731;SHT31;56996;48.138;11.538;2023-09-12T14:23:17;31.76;30.34
69731;SHT31;56996;48.138;11.538;2023-09-12T14:25:44;31.76;30.75
69731;SHT31;56996;48.138;11.538;2023-09-12T14:28:12;31.81;30.53
69731;SHT31;56996;48.138;11.538;2023-09-12T14:30:41;31.76;30.78
69731;SHT31;56996;48.138;11.538;2023-09-12T14:33:12;31.67;30.65
69731;SHT31;56996;48.138;11.538;2023-09-12T14:35:43;31.55;30.88
69731;SHT31;56996;48.138;11.538;2023-09-12T14:38:11;31.45;30.68
69731;SHT31;56996;48.138;11.538;2023-09-12T14:40:38;31.43;30.72
69731;SHT31;56996;48.138;11.538;2023-09-12T14:43:11;31.54;31.54
69731;SHT31;56996;48.138;11.538;2023-09-12T14:45:37;31.56;32.13
69731;SHT31;56996;48.138;11.538;2023-09-12T14:48:05;31.50;32.93
69731;SHT31;56996;48.138;11.538;2023-09-12T14:50:34;31.49;33.83
69731;SHT31;56996;48.138;11.538;2023-09-12T14:53:09;31.44;33.96
69731;SHT31;56996;48.138;11.538;2023-09-12T14:55:38;31.41;34.06
69731;SHT31;56996;48.138;11.538;2023-09-12T14:58:05;31.33;34.81
69731;SHT31;56996;48.138;11.538;2023-09-12T15:00:32;31.23;35.31
69731;SHT31;56996;48.138;11.538;2023-09-12T15:03:00;31.15;35.67
69731;SHT31;56996;48.138;11.538;2023-09-12T15:05:28;31.04;35.48
69731;SHT31;56996;48.138;11.538;2023-09-12T15:07:55;31.01;35.90
69731;SHT31;56996;48.138;11.538;2023-09-12T15:10:21;30.98;35.63
69731;SHT31;56996;48.138;11.538;2023-09-12T15:12:48;30.94;35.46
69731;SHT31;56996;48.138;11.538;2023-09-12T15:15:15;30.90;35.46
69731;SHT31;56996;48.138;11.538;2023-09-12T15:17:42;30.89;35.63
69731;SHT31;56996;48.138;11.538;2023-09-12T15:20:09;30.82;36.23
69731;SHT31;56996;48.138;11.538;2023-09-12T15:22:38;30.74;36.48
69731;SHT31;56996;48.138;11.538;2023-09-12T15:25:06;30.70;36.34
69731;SHT31;56996;48.138;11.538;2023-09-12T15:27:33;30.66;36.47
69731;SHT31;56996;48.138;11.538;2023-09-12T15:30:03;30.65;36.66
69731;SHT31;56996;48.138;11.538;2023-09-12T15:32:32;30.64;36.83